Startpagina
METAR-TAF:

METAR-TAF

Vliegvelden :

Ayacucho, Peru

breedte: 13-08S, lengte: 074-13W, hoogte: 2740 m

Actueel weer

Dit bericht is 14 minuten geleden gemaakt, om 10:00 UTC
Wind 1 kt uit het oosten
Temperatuur 10°C
Vochtigheid 87%
Druk 1028 hPa
Zicht 10 km of meer
Weinig wolken op 2500 ft
Gebroken wolken op 8000 ft

METAR: SPHO 231000Z 09001KT 9999 FEW025 BKN080 10/08 Q1028 RMK RA EN LA NOCHE PP035

Tijdstip: 05:14 (10:14 UTC)

Verwachting

Dit bericht is 17 uur en het 14 minuten geleden gemaakt, om 17:00 UTC
Verwachting geldig van 22 om 18 UTC tot 23 om 18 UTC
Wind 4 kt uit variabele richting
Zicht 10 km of meer
Weinig wolken op 5000 ft
Tijdelijke
van 22 om 19 UTC tot 22 om 23 UTC
Wind 10 kt uit het oostnoordoosten

TAF: SPHO 221700Z 2218/2318 VRB04KT 9999 FEW050 TX23/2219Z TN10/2311Z TEMPO 2219/2223 06010KT

Waarnemingen en weersverwachtingen van meer dan 4000 vliegvelden (METAR en TAF).

De beschikbare stations zijn de gele en rode punten op de kaart.

Ga met uw muis naar het station om de naam te zien.

Klik dan om waarnemingen en weersverwachtingen te zien.

kaart wijzigen: klik op de groene knoppen met een zwart kruis om in te zoomen, op de groene knop met een streepje om uit te zoomen of op de groene pijlen voor aangrenzende kaarten.


METAR-TAF: